sensor_id;sensor_type;location;lat;lon;timestamp;P1;durP1;ratioP1;P2;durP2;ratioP2
85753;SDS011;76193;51.076;-1.794;2024-03-02T00:00:05;5.60;;;1.50;;
85753;SDS011;76193;51.076;-1.794;2024-03-02T00:02:43;1.80;;;0.98;;
85753;SDS011;76193;51.076;-1.794;2024-03-02T00:05:12;1.40;;;0.57;;
85753;SDS011;76193;51.076;-1.794;2024-03-02T00:07:43;6.65;;;1.48;;
85753;SDS011;76193;51.076;-1.794;2024-03-02T00:10:10;3.10;;;1.00;;
85753;SDS011;76193;51.076;-1.794;2024-03-02T00:12:37;3.75;;;0.90;;
85753;SDS011;76193;51.076;-1.794;2024-03-02T00:17:53;2.55;;;1.15;;
85753;SDS011;76193;51.076;-1.794;2024-03-02T00:20:18;2.45;;;0.90;;
85753;SDS011;76193;51.076;-1.794;2024-03-02T00:22:47;5.18;;;1.13;;
85753;SDS011;76193;51.076;-1.794;2024-03-02T00:25:12;2.03;;;0.70;;
85753;SDS011;76193;51.076;-1.794;2024-03-02T00:27:38;7.45;;;1.08;;
85753;SDS011;76193;51.076;-1.794;2024-03-02T00:33:07;2.40;;;0.65;;
85753;SDS011;76193;51.076;-1.794;2024-03-02T00:35:32;0.88;;;0.88;;
85753;SDS011;76193;51.076;-1.794;2024-03-02T00:37:58;3.38;;;0.68;;
85753;SDS011;76193;51.076;-1.794;2024-03-02T00:40:26;1.08;;;0.40;;
85753;SDS011;76193;51.076;-1.794;2024-03-02T00:42:52;2.38;;;0.93;;
85753;SDS011;76193;51.076;-1.794;2024-03-02T00:45:18;3.60;;;1.02;;
85753;SDS011;76193;51.076;-1.794;2024-03-02T00:47:43;4.57;;;1.10;;
85753;SDS011;76193;51.076;-1.794;2024-03-02T00:50:09;5.70;;;1.00;;
85753;SDS011;76193;51.076;-1.794;2024-03-02T00:52:34;3.30;;;1.33;;
85753;SDS011;76193;51.076;-1.794;2024-03-02T00:54:59;3.38;;;1.52;;
85753;SDS011;76193;51.076;-1.794;2024-03-02T00:57:25;1.42;;;0.75;;
85753;SDS011;76193;51.076;-1.794;2024-03-02T00:59:51;2.15;;;0.70;;
85753;SDS011;76193;51.076;-1.794;2024-03-02T01:02:16;4.90;;;1.05;;
85753;SDS011;76193;51.076;-1.794;2024-03-02T01:04:42;6.65;;;1.40;;
85753;SDS011;76193;51.076;-1.794;2024-03-02T01:07:07;1.27;;;0.40;;
85753;SDS011;76193;51.076;-1.794;2024-03-02T01:09:33;2.97;;;0.52;;
85753;SDS011;76193;51.076;-1.794;2024-03-02T01:11:58;5.70;;;1.13;;
85753;SDS011;76193;51.076;-1.794;2024-03-02T01:14:23;2.53;;;0.93;;
85753;SDS011;76193;51.076;-1.794;2024-03-02T01:16:49;3.60;;;1.80;;
85753;SDS011;76193;51.076;-1.794;2024-03-02T01:19:14;0.75;;;0.35;;
85753;SDS011;76193;51.076;-1.794;2024-03-02T01:21:40;0.35;;;0.30;;
85753;SDS011;76193;51.076;-1.794;2024-03-02T01:24:05;2.28;;;0.32;;
85753;SDS011;76193;51.076;-1.794;2024-03-02T01:26:31;4.77;;;0.50;;
85753;SDS011;76193;51.076;-1.794;2024-03-02T01:28:56;2.33;;;0.57;;
85753;SDS011;76193;51.076;-1.794;2024-03-02T01:31:21;3.20;;;1.20;;
85753;SDS011;76193;51.076;-1.794;2024-03-02T01:33:47;2.08;;;0.77;;
85753;SDS011;76193;51.076;-1.794;2024-03-02T01:36:12;3.37;;;1.10;;
85753;SDS011;76193;51.076;-1.794;2024-03-02T01:38:37;4.63;;;0.98;;
85753;SDS011;76193;51.076;-1.794;2024-03-02T01:41:03;2.85;;;0.57;;
85753;SDS011;76193;51.076;-1.794;2024-03-02T01:43:28;3.33;;;0.93;;
85753;SDS011;76193;51.076;-1.794;2024-03-02T01:45:53;0.28;;;0.15;;
85753;SDS011;76193;51.076;-1.794;2024-03-02T01:48:19;2.30;;;0.40;;
85753;SDS011;76193;51.076;-1.794;2024-03-02T01:50:44;1.27;;;0.80;;
85753;SDS011;76193;51.076;-1.794;2024-03-02T01:53:09;2.17;;;0.30;;
85753;SDS011;76193;51.076;-1.794;2024-03-02T01:55:35;1.00;;;0.47;;
85753;SDS011;76193;51.076;-1.794;2024-03-02T01:58:00;0.17;;;0.10;;
85753;SDS011;76193;51.076;-1.794;2024-03-02T02:00:26;1.00;;;0.32;;
85753;SDS011;76193;51.076;-1.794;2024-03-02T02:02:51;1.40;;;0.40;;
85753;SDS011;76193;51.076;-1.794;2024-03-02T02:05:17;0.75;;;0.20;;
85753;SDS011;76193;51.076;-1.794;2024-03-02T02:07:43;0.28;;;0.10;;
85753;SDS011;76193;51.076;-1.794;2024-03-02T02:10:09;0.30;;;0.22;;
85753;SDS011;76193;51.076;-1.794;2024-03-02T02:12:35;1.10;;;0.28;;
85753;SDS011;76193;51.076;-1.794;2024-03-02T02:15:01;3.03;;;0.25;;
85753;SDS011;76193;51.076;-1.794;2024-03-02T02:17:26;0.05;;;0.05;;
85753;SDS011;76193;51.076;-1.794;2024-03-02T02:19:51;3.92;;;0.65;;
85753;SDS011;76193;51.076;-1.794;2024-03-02T02:22:17;1.90;;;0.38;;
85753;SDS011;76193;51.076;-1.794;2024-03-02T02:24:42;0.57;;;0.20;;
85753;SDS011;76193;51.076;-1.794;2024-03-02T02:27:08;1.45;;;0.32;;
85753;SDS011;76193;51.076;-1.794;2024-03-02T02:29:34;0.85;;;0.17;;
85753;SDS011;76193;51.076;-1.794;2024-03-02T02:32:00;0.52;;;0.30;;
85753;SDS011;76193;51.076;-1.794;2024-03-02T02:34:25;0.98;;;0.17;;
85753;SDS011;76193;51.076;-1.794;2024-03-02T02:36:51;1.40;;;0.10;;
85753;SDS011;76193;51.076;-1.794;2024-03-02T02:39:16;0.68;;;0.38;;
85753;SDS011;76193;51.076;-1.794;2024-03-02T02:41:43;0.73;;;0.32;;
85753;SDS011;76193;51.076;-1.794;2024-03-02T02:44:09;3.88;;;0.90;;
85753;SDS011;76193;51.076;-1.794;2024-03-02T02:46:37;0.35;;;0.13;;
85753;SDS011;76193;51.076;-1.794;2024-03-02T02:49:03;0.03;;;0.03;;
85753;SDS011;76193;51.076;-1.794;2024-03-02T02:51:28;0.32;;;0.15;;
85753;SDS011;76193;51.076;-1.794;2024-03-02T02:53:54;1.95;;;0.47;;
85753;SDS011;76193;51.076;-1.794;2024-03-02T02:56:19;0.38;;;0.32;;
85753;SDS011;76193;51.076;-1.794;2024-03-02T02:58:44;2.95;;;0.40;;
85753;SDS011;76193;51.076;-1.794;2024-03-02T03:01:10;0.43;;;0.30;;
85753;SDS011;76193;51.076;-1.794;2024-03-02T03:03:35;0.95;;;0.47;;
85753;SDS011;76193;51.076;-1.794;2024-03-02T03:06:01;1.10;;;0.30;;
85753;SDS011;76193;51.076;-1.794;2024-03-02T03:08:27;2.03;;;0.85;;
85753;SDS011;76193;51.076;-1.794;2024-03-02T03:10:52;3.10;;;1.25;;
85753;SDS011;76193;51.076;-1.794;2024-03-02T03:13:18;3.90;;;1.27;;
85753;SDS011;76193;51.076;-1.794;2024-03-02T03:15:43;3.03;;;1.33;;
85753;SDS011;76193;51.076;-1.794;2024-03-02T03:18:08;4.18;;;1.60;;
85753;SDS011;76193;51.076;-1.794;2024-03-02T03:20:35;6.15;;;1.60;;
85753;SDS011;76193;51.076;-1.794;2024-03-02T03:23:00;3.42;;;1.05;;
85753;SDS011;76193;51.076;-1.794;2024-03-02T03:25:26;3.80;;;1.27;;
85753;SDS011;76193;51.076;-1.794;2024-03-02T03:27:51;5.77;;;1.53;;
85753;SDS011;76193;51.076;-1.794;2024-03-02T03:30:17;3.92;;;1.77;;
85753;SDS011;76193;51.076;-1.794;2024-03-02T03:32:43;6.97;;;2.42;;
85753;SDS011;76193;51.076;-1.794;2024-03-02T03:35:08;5.05;;;1.35;;
85753;SDS011;76193;51.076;-1.794;2024-03-02T03:37:34;0.80;;;0.47;;
85753;SDS011;76193;51.076;-1.794;2024-03-02T03:39:59;0.32;;;0.32;;
85753;SDS011;76193;51.076;-1.794;2024-03-02T03:42:26;0.25;;;0.25;;
85753;SDS011;76193;51.076;-1.794;2024-03-02T03:44:51;2.92;;;0.63;;
85753;SDS011;76193;51.076;-1.794;2024-03-02T03:47:17;2.40;;;0.38;;
85753;SDS011;76193;51.076;-1.794;2024-03-02T03:49:42;2.20;;;0.88;;
85753;SDS011;76193;51.076;-1.794;2024-03-02T03:52:07;0.37;;;0.37;;
85753;SDS011;76193;51.076;-1.794;2024-03-02T03:54:33;0.52;;;0.35;;
85753;SDS011;76193;51.076;-1.794;2024-03-02T03:56:58;0.30;;;0.20;;
85753;SDS011;76193;51.076;-1.794;2024-03-02T03:59:23;0.20;;;0.13;;
85753;SDS011;76193;51.076;-1.794;2024-03-02T04:01:49;0.23;;;0.23;;
85753;SDS011;76193;51.076;-1.794;2024-03-02T04:04:14;0.03;;;0.03;;
85753;SDS011;76193;51.076;-1.794;2024-03-02T04:06:39;0.38;;;0.35;;
85753;SDS011;76193;51.076;-1.794;2024-03-02T04:09:05;0.45;;;0.38;;
85753;SDS011;76193;51.076;-1.794;2024-03-02T04:11:30;1.75;;;0.35;;
85753;SDS011;76193;51.076;-1.794;2024-03-02T04:13:56;2.15;;;0.45;;
85753;SDS011;76193;51.076;-1.794;2024-03-02T04:16:21;0.63;;;0.40;;
85753;SDS011;76193;51.076;-1.794;2024-03-02T04:18:46;1.65;;;0.50;;
85753;SDS011;76193;51.076;-1.794;2024-03-02T04:21:12;4.00;;;0.50;;
85753;SDS011;76193;51.076;-1.794;2024-03-02T04:23:37;0.73;;;0.52;;
85753;SDS011;76193;51.076;-1.794;2024-03-02T04:26:03;1.65;;;0.43;;
85753;SDS011;76193;51.076;-1.794;2024-03-02T04:28:29;1.42;;;0.57;;
85753;SDS011;76193;51.076;-1.794;2024-03-02T04:30:54;1.27;;;0.43;;
85753;SDS011;76193;51.076;-1.794;2024-03-02T04:33:19;5.63;;;0.57;;
85753;SDS011;76193;51.076;-1.794;2024-03-02T04:35:45;1.20;;;0.80;;
85753;SDS011;76193;51.076;-1.794;2024-03-02T04:38:11;1.98;;;0.73;;
85753;SDS011;76193;51.076;-1.794;2024-03-02T04:40:36;1.42;;;0.50;;
85753;SDS011;76193;51.076;-1.794;2024-03-02T04:43:02;1.63;;;0.77;;
85753;SDS011;76193;51.076;-1.794;2024-03-02T04:45:28;2.05;;;0.43;;
85753;SDS011;76193;51.076;-1.794;2024-03-02T04:47:54;2.42;;;0.77;;
85753;SDS011;76193;51.076;-1.794;2024-03-02T04:50:19;3.30;;;0.50;;
85753;SDS011;76193;51.076;-1.794;2024-03-02T04:52:44;2.50;;;0.80;;
85753;SDS011;76193;51.076;-1.794;2024-03-02T04:55:10;2.10;;;0.75;;
85753;SDS011;76193;51.076;-1.794;2024-03-02T04:57:42;3.03;;;0.85;;
85753;SDS011;76193;51.076;-1.794;2024-03-02T05:00:08;5.18;;;0.85;;
85753;SDS011;76193;51.076;-1.794;2024-03-02T05:02:34;1.05;;;0.70;;
85753;SDS011;76193;51.076;-1.794;2024-03-02T05:05:00;0.82;;;0.68;;
85753;SDS011;76193;51.076;-1.794;2024-03-02T05:07:25;2.92;;;0.70;;
85753;SDS011;76193;51.076;-1.794;2024-03-02T05:09:51;0.60;;;0.38;;
85753;SDS011;76193;51.076;-1.794;2024-03-02T05:12:16;2.13;;;0.57;;
85753;SDS011;76193;51.076;-1.794;2024-03-02T05:15:00;1.35;;;0.98;;
85753;SDS011;76193;51.076;-1.794;2024-03-02T05:17:27;1.63;;;0.45;;
85753;SDS011;76193;51.076;-1.794;2024-03-02T05:19:52;0.73;;;0.70;;
85753;SDS011;76193;51.076;-1.794;2024-03-02T05:22:17;0.60;;;0.60;;
85753;SDS011;76193;51.076;-1.794;2024-03-02T05:24:43;2.05;;;0.68;;
85753;SDS011;76193;51.076;-1.794;2024-03-02T05:27:08;1.92;;;0.75;;
85753;SDS011;76193;51.076;-1.794;2024-03-02T05:29:33;0.32;;;0.32;;
85753;SDS011;76193;51.076;-1.794;2024-03-02T05:31:59;1.98;;;1.50;;
85753;SDS011;76193;51.076;-1.794;2024-03-02T05:34:24;4.67;;;2.43;;
85753;SDS011;76193;51.076;-1.794;2024-03-02T05:36:49;3.33;;;1.90;;
85753;SDS011;76193;51.076;-1.794;2024-03-02T05:39:15;2.20;;;1.50;;
85753;SDS011;76193;51.076;-1.794;2024-03-02T05:41:40;2.38;;;1.67;;
85753;SDS011;76193;51.076;-1.794;2024-03-02T05:44:06;2.33;;;1.60;;
85753;SDS011;76193;51.076;-1.794;2024-03-02T05:46:31;2.00;;;1.20;;
85753;SDS011;76193;51.076;-1.794;2024-03-02T05:48:57;1.17;;;0.85;;
85753;SDS011;76193;51.076;-1.794;2024-03-02T05:51:23;0.73;;;0.73;;
85753;SDS011;76193;51.076;-1.794;2024-03-02T05:53:48;2.47;;;1.20;;
85753;SDS011;76193;51.076;-1.794;2024-03-02T05:56:13;2.37;;;1.40;;
85753;SDS011;76193;51.076;-1.794;2024-03-02T05:58:40;1.48;;;1.17;;
85753;SDS011;76193;51.076;-1.794;2024-03-02T06:01:24;2.40;;;1.60;;
85753;SDS011;76193;51.076;-1.794;2024-03-02T06:03:54;1.52;;;1.27;;
85753;SDS011;76193;51.076;-1.794;2024-03-02T06:06:20;0.70;;;0.50;;
85753;SDS011;76193;51.076;-1.794;2024-03-02T06:08:46;1.33;;;0.85;;
85753;SDS011;76193;51.076;-1.794;2024-03-02T06:11:11;0.73;;;0.55;;
85753;SDS011;76193;51.076;-1.794;2024-03-02T06:13:36;1.33;;;0.90;;
85753;SDS011;76193;51.076;-1.794;2024-03-02T06:16:02;1.43;;;0.93;;
85753;SDS011;76193;51.076;-1.794;2024-03-02T06:18:27;0.93;;;0.88;;
85753;SDS011;76193;51.076;-1.794;2024-03-02T06:20:53;1.00;;;0.90;;
85753;SDS011;76193;51.076;-1.794;2024-03-02T06:23:18;0.70;;;0.70;;
85753;SDS011;76193;51.076;-1.794;2024-03-02T06:25:44;0.60;;;0.57;;
85753;SDS011;76193;51.076;-1.794;2024-03-02T06:28:09;2.17;;;1.50;;
85753;SDS011;76193;51.076;-1.794;2024-03-02T06:30:34;1.40;;;1.13;;
85753;SDS011;76193;51.076;-1.794;2024-03-02T06:33:00;1.17;;;0.87;;
85753;SDS011;76193;51.076;-1.794;2024-03-02T06:35:25;0.60;;;0.60;;
85753;SDS011;76193;51.076;-1.794;2024-03-02T06:37:51;1.13;;;1.10;;
85753;SDS011;76193;51.076;-1.794;2024-03-02T06:40:16;0.65;;;0.65;;
85753;SDS011;76193;51.076;-1.794;2024-03-02T06:42:42;1.70;;;0.97;;
85753;SDS011;76193;51.076;-1.794;2024-03-02T06:45:07;1.50;;;1.00;;
85753;SDS011;76193;51.076;-1.794;2024-03-02T06:47:33;1.25;;;0.90;;
85753;SDS011;76193;51.076;-1.794;2024-03-02T06:49:58;0.75;;;0.75;;
85753;SDS011;76193;51.076;-1.794;2024-03-02T06:52:24;1.70;;;1.00;;
85753;SDS011;76193;51.076;-1.794;2024-03-02T06:54:49;1.88;;;0.90;;
85753;SDS011;76193;51.076;-1.794;2024-03-02T06:57:14;1.03;;;0.80;;
85753;SDS011;76193;51.076;-1.794;2024-03-02T06:59:41;1.45;;;0.95;;
85753;SDS011;76193;51.076;-1.794;2024-03-02T07:02:07;1.35;;;0.88;;
85753;SDS011;76193;51.076;-1.794;2024-03-02T07:04:33;0.95;;;0.80;;
85753;SDS011;76193;51.076;-1.794;2024-03-02T07:06:59;1.73;;;0.85;;
85753;SDS011;76193;51.076;-1.794;2024-03-02T07:09:24;1.07;;;0.90;;
85753;SDS011;76193;51.076;-1.794;2024-03-02T07:11:50;0.95;;;0.65;;
85753;SDS011;76193;51.076;-1.794;2024-03-02T07:14:16;1.30;;;1.00;;
85753;SDS011;76193;51.076;-1.794;2024-03-02T07:16:41;1.63;;;0.77;;
85753;SDS011;76193;51.076;-1.794;2024-03-02T07:19:08;1.63;;;0.73;;
85753;SDS011;76193;51.076;-1.794;2024-03-02T07:21:34;1.33;;;1.17;;
85753;SDS011;76193;51.076;-1.794;2024-03-02T07:23:59;1.50;;;1.17;;
85753;SDS011;76193;51.076;-1.794;2024-03-02T07:26:25;1.88;;;0.88;;
85753;SDS011;76193;51.076;-1.794;2024-03-02T07:28:50;1.75;;;1.52;;
85753;SDS011;76193;51.076;-1.794;2024-03-02T07:31:16;0.75;;;0.63;;
85753;SDS011;76193;51.076;-1.794;2024-03-02T07:33:43;1.55;;;1.25;;
85753;SDS011;76193;51.076;-1.794;2024-03-02T07:36:10;0.80;;;0.80;;
85753;SDS011;76193;51.076;-1.794;2024-03-02T07:38:35;0.63;;;0.60;;
85753;SDS011;76193;51.076;-1.794;2024-03-02T07:41:00;1.80;;;1.00;;
85753;SDS011;76193;51.076;-1.794;2024-03-02T07:43:26;7.88;;;4.55;;
85753;SDS011;76193;51.076;-1.794;2024-03-02T07:45:51;5.28;;;2.30;;
85753;SDS011;76193;51.076;-1.794;2024-03-02T07:48:17;1.73;;;1.30;;
85753;SDS011;76193;51.076;-1.794;2024-03-02T07:50:43;3.28;;;2.33;;
85753;SDS011;76193;51.076;-1.794;2024-03-02T07:53:08;4.05;;;2.90;;
85753;SDS011;76193;51.076;-1.794;2024-03-02T07:55:34;2.03;;;1.20;;
85753;SDS011;76193;51.076;-1.794;2024-03-02T07:58:02;1.02;;;0.77;;
85753;SDS011;76193;51.076;-1.794;2024-03-02T08:00:28;6.50;;;1.50;;
85753;SDS011;76193;51.076;-1.794;2024-03-02T08:02:53;1.35;;;0.82;;
85753;SDS011;76193;51.076;-1.794;2024-03-02T08:05:19;2.17;;;1.10;;
85753;SDS011;76193;51.076;-1.794;2024-03-02T08:07:45;1.50;;;0.90;;
85753;SDS011;76193;51.076;-1.794;2024-03-02T08:10:11;0.85;;;0.52;;
85753;SDS011;76193;51.076;-1.794;2024-03-02T08:12:36;0.88;;;0.88;;
85753;SDS011;76193;51.076;-1.794;2024-03-02T08:15:02;1.13;;;0.82;;
85753;SDS011;76193;51.076;-1.794;2024-03-02T08:17:27;1.52;;;1.20;;
85753;SDS011;76193;51.076;-1.794;2024-03-02T08:19:52;1.35;;;0.90;;
85753;SDS011;76193;51.076;-1.794;2024-03-02T08:22:18;1.35;;;1.15;;
85753;SDS011;76193;51.076;-1.794;2024-03-02T08:24:43;0.75;;;0.75;;
85753;SDS011;76193;51.076;-1.794;2024-03-02T08:27:09;1.00;;;0.85;;
85753;SDS011;76193;51.076;-1.794;2024-03-02T08:29:34;3.55;;;1.48;;
85753;SDS011;76193;51.076;-1.794;2024-03-02T08:32:00;2.85;;;1.65;;
85753;SDS011;76193;51.076;-1.794;2024-03-02T08:34:25;4.80;;;2.83;;
85753;SDS011;76193;51.076;-1.794;2024-03-02T08:36:50;3.42;;;2.22;;
85753;SDS011;76193;51.076;-1.794;2024-03-02T08:39:16;3.10;;;2.10;;
85753;SDS011;76193;51.076;-1.794;2024-03-02T08:41:42;4.30;;;2.53;;
85753;SDS011;76193;51.076;-1.794;2024-03-02T08:44:09;3.50;;;2.00;;
85753;SDS011;76193;51.076;-1.794;2024-03-02T08:46:34;3.50;;;2.03;;
85753;SDS011;76193;51.076;-1.794;2024-03-02T08:49:00;4.32;;;2.22;;
85753;SDS011;76193;51.076;-1.794;2024-03-02T08:51:25;5.53;;;2.22;;
85753;SDS011;76193;51.076;-1.794;2024-03-02T08:53:50;3.42;;;2.40;;
85753;SDS011;76193;51.076;-1.794;2024-03-02T08:56:16;3.15;;;1.60;;
85753;SDS011;76193;51.076;-1.794;2024-03-02T08:58:41;4.20;;;2.45;;
85753;SDS011;76193;51.076;-1.794;2024-03-02T09:01:07;5.00;;;2.40;;
85753;SDS011;76193;51.076;-1.794;2024-03-02T09:03:33;4.55;;;2.80;;
85753;SDS011;76193;51.076;-1.794;2024-03-02T09:05:59;3.80;;;2.13;;
85753;SDS011;76193;51.076;-1.794;2024-03-02T09:08:25;4.70;;;2.78;;
85753;SDS011;76193;51.076;-1.794;2024-03-02T09:10:50;5.63;;;2.63;;
85753;SDS011;76193;51.076;-1.794;2024-03-02T09:13:16;4.75;;;1.95;;
85753;SDS011;76193;51.076;-1.794;2024-03-02T09:15:41;3.03;;;2.10;;
85753;SDS011;76193;51.076;-1.794;2024-03-02T09:18:07;3.63;;;2.13;;
85753;SDS011;76193;51.076;-1.794;2024-03-02T09:20:32;2.70;;;1.75;;
85753;SDS011;76193;51.076;-1.794;2024-03-02T09:22:57;3.33;;;2.10;;
85753;SDS011;76193;51.076;-1.794;2024-03-02T09:25:23;5.37;;;2.93;;
85753;SDS011;76193;51.076;-1.794;2024-03-02T09:27:48;2.30;;;1.63;;
85753;SDS011;76193;51.076;-1.794;2024-03-02T09:30:13;3.95;;;2.33;;
85753;SDS011;76193;51.076;-1.794;2024-03-02T09:32:39;3.00;;;1.90;;
85753;SDS011;76193;51.076;-1.794;2024-03-02T09:35:04;4.25;;;2.33;;
85753;SDS011;76193;51.076;-1.794;2024-03-02T09:37:30;3.47;;;2.53;;
85753;SDS011;76193;51.076;-1.794;2024-03-02T09:39:56;5.43;;;2.90;;
85753;SDS011;76193;51.076;-1.794;2024-03-02T09:42:21;6.38;;;3.70;;
85753;SDS011;76193;51.076;-1.794;2024-03-02T09:44:47;5.67;;;3.30;;
85753;SDS011;76193;51.076;-1.794;2024-03-02T09:47:12;7.35;;;3.65;;
85753;SDS011;76193;51.076;-1.794;2024-03-02T09:49:38;9.75;;;5.63;;
85753;SDS011;76193;51.076;-1.794;2024-03-02T09:52:03;5.28;;;3.47;;
85753;SDS011;76193;51.076;-1.794;2024-03-02T09:54:29;5.00;;;3.45;;
85753;SDS011;76193;51.076;-1.794;2024-03-02T09:56:55;5.55;;;3.25;;
85753;SDS011;76193;51.076;-1.794;2024-03-02T09:59:20;3.30;;;2.38;;
85753;SDS011;76193;51.076;-1.794;2024-03-02T10:01:55;6.03;;;1.80;;
85753;SDS011;76193;51.076;-1.794;2024-03-02T10:04:28;2.83;;;1.75;;
85753;SDS011;76193;51.076;-1.794;2024-03-02T10:09:38;3.38;;;1.63;;
85753;SDS011;76193;51.076;-1.794;2024-03-02T10:12:05;2.72;;;2.10;;
85753;SDS011;76193;51.076;-1.794;2024-03-02T10:14:31;3.13;;;1.80;;
85753;SDS011;76193;51.076;-1.794;2024-03-02T10:17:04;2.55;;;1.77;;
85753;SDS011;76193;51.076;-1.794;2024-03-02T10:19:33;3.70;;;2.00;;
85753;SDS011;76193;51.076;-1.794;2024-03-02T10:22:00;3.05;;;1.92;;
85753;SDS011;76193;51.076;-1.794;2024-03-02T10:24:27;2.53;;;1.90;;
85753;SDS011;76193;51.076;-1.794;2024-03-02T10:26:53;2.17;;;1.70;;
85753;SDS011;76193;51.076;-1.794;2024-03-02T10:29:19;3.47;;;2.00;;
85753;SDS011;76193;51.076;-1.794;2024-03-02T10:31:45;2.47;;;1.88;;
85753;SDS011;76193;51.076;-1.794;2024-03-02T10:34:11;2.88;;;1.88;;
85753;SDS011;76193;51.076;-1.794;2024-03-02T10:36:40;2.15;;;1.70;;
85753;SDS011;76193;51.076;-1.794;2024-03-02T10:39:06;2.08;;;1.67;;
85753;SDS011;76193;51.076;-1.794;2024-03-02T10:41:33;2.20;;;1.58;;
85753;SDS011;76193;51.076;-1.794;2024-03-02T10:44:01;2.53;;;1.67;;
85753;SDS011;76193;51.076;-1.794;2024-03-02T10:46:28;3.38;;;1.50;;
85753;SDS011;76193;51.076;-1.794;2024-03-02T10:48:55;2.38;;;1.58;;
85753;SDS011;76193;51.076;-1.794;2024-03-02T10:51:21;2.03;;;1.23;;
85753;SDS011;76193;51.076;-1.794;2024-03-02T10:53:46;1.98;;;1.23;;
85753;SDS011;76193;51.076;-1.794;2024-03-02T10:56:11;1.60;;;1.38;;
85753;SDS011;76193;51.076;-1.794;2024-03-02T10:58:41;1.33;;;1.23;;
85753;SDS011;76193;51.076;-1.794;2024-03-02T11:01:07;3.03;;;2.00;;
85753;SDS011;76193;51.076;-1.794;2024-03-02T11:03:35;2.40;;;1.63;;
85753;SDS011;76193;51.076;-1.794;2024-03-02T11:06:05;1.70;;;1.60;;
85753;SDS011;76193;51.076;-1.794;2024-03-02T11:08:33;1.67;;;1.38;;
85753;SDS011;76193;51.076;-1.794;2024-03-02T11:11:02;2.65;;;1.83;;
85753;SDS011;76193;51.076;-1.794;2024-03-02T11:13:32;2.35;;;1.67;;
85753;SDS011;76193;51.076;-1.794;2024-03-02T11:15:59;1.95;;;1.42;;
85753;SDS011;76193;51.076;-1.794;2024-03-02T11:18:31;2.55;;;1.70;;
85753;SDS011;76193;51.076;-1.794;2024-03-02T11:20:57;2.40;;;1.80;;
85753;SDS011;76193;51.076;-1.794;2024-03-02T11:23:31;2.15;;;1.60;;
85753;SDS011;76193;51.076;-1.794;2024-03-02T11:26:21;2.40;;;1.77;;
85753;SDS011;76193;51.076;-1.794;2024-03-02T11:28:50;3.70;;;1.95;;
85753;SDS011;76193;51.076;-1.794;2024-03-02T11:31:16;4.90;;;2.35;;
85753;SDS011;76193;51.076;-1.794;2024-03-02T11:33:42;2.20;;;1.73;;
85753;SDS011;76193;51.076;-1.794;2024-03-02T11:36:08;2.95;;;2.00;;
85753;SDS011;76193;51.076;-1.794;2024-03-02T11:38:34;2.47;;;1.90;;
85753;SDS011;76193;51.076;-1.794;2024-03-02T11:41:03;2.90;;;1.98;;
85753;SDS011;76193;51.076;-1.794;2024-03-02T11:43:32;2.83;;;1.80;;
85753;SDS011;76193;51.076;-1.794;2024-03-02T11:45:58;2.30;;;1.90;;
85753;SDS011;76193;51.076;-1.794;2024-03-02T11:48:25;2.92;;;1.92;;
85753;SDS011;76193;51.076;-1.794;2024-03-02T11:50:50;3.15;;;2.17;;
85753;SDS011;76193;51.076;-1.794;2024-03-02T11:53:16;3.20;;;2.40;;
85753;SDS011;76193;51.076;-1.794;2024-03-02T11:55:43;2.72;;;2.28;;
85753;SDS011;76193;51.076;-1.794;2024-03-02T11:58:12;3.40;;;2.28;;
85753;SDS011;76193;51.076;-1.794;2024-03-02T12:00:37;2.03;;;1.70;;
85753;SDS011;76193;51.076;-1.794;2024-03-02T12:03:04;2.53;;;1.88;;
85753;SDS011;76193;51.076;-1.794;2024-03-02T12:05:30;2.88;;;2.00;;
85753;SDS011;76193;51.076;-1.794;2024-03-02T12:07:59;3.00;;;2.17;;
85753;SDS011;76193;51.076;-1.794;2024-03-02T12:10:26;2.83;;;2.00;;
85753;SDS011;76193;51.076;-1.794;2024-03-02T12:15:28;4.85;;;2.25;;
85753;SDS011;76193;51.076;-1.794;2024-03-02T12:17:58;3.67;;;2.40;;
85753;SDS011;76193;51.076;-1.794;2024-03-02T12:20:25;2.55;;;2.00;;
85753;SDS011;76193;51.076;-1.794;2024-03-02T12:22:51;10.20;;;2.92;;
85753;SDS011;76193;51.076;-1.794;2024-03-02T12:25:17;3.60;;;2.50;;
85753;SDS011;76193;51.076;-1.794;2024-03-02T12:27:44;3.50;;;2.35;;
85753;SDS011;76193;51.076;-1.794;2024-03-02T12:30:11;3.00;;;2.60;;
85753;SDS011;76193;51.076;-1.794;2024-03-02T12:32:37;3.35;;;2.67;;
85753;SDS011;76193;51.076;-1.794;2024-03-02T12:35:04;3.30;;;2.50;;
85753;SDS011;76193;51.076;-1.794;2024-03-02T12:37:30;3.55;;;2.90;;
85753;SDS011;76193;51.076;-1.794;2024-03-02T12:39:56;4.65;;;3.05;;
85753;SDS011;76193;51.076;-1.794;2024-03-02T12:42:21;4.10;;;3.15;;
85753;SDS011;76193;51.076;-1.794;2024-03-02T12:44:46;4.10;;;2.93;;
85753;SDS011;76193;51.076;-1.794;2024-03-02T12:47:12;3.50;;;2.67;;
85753;SDS011;76193;51.076;-1.794;2024-03-02T12:49:39;3.40;;;2.60;;
85753;SDS011;76193;51.076;-1.794;2024-03-02T12:52:05;2.75;;;2.47;;
85753;SDS011;76193;51.076;-1.794;2024-03-02T12:54:31;3.45;;;2.80;;
85753;SDS011;76193;51.076;-1.794;2024-03-02T12:56:58;3.22;;;2.30;;
85753;SDS011;76193;51.076;-1.794;2024-03-02T12:59:24;3.45;;;3.00;;
85753;SDS011;76193;51.076;-1.794;2024-03-02T13:01:54;3.20;;;2.78;;
85753;SDS011;76193;51.076;-1.794;2024-03-02T13:04:26;2.80;;;2.38;;
85753;SDS011;76193;51.076;-1.794;2024-03-02T13:06:53;4.95;;;2.80;;
85753;SDS011;76193;51.076;-1.794;2024-03-02T13:09:21;3.20;;;2.33;;
85753;SDS011;76193;51.076;-1.794;2024-03-02T13:11:46;2.72;;;2.10;;
85753;SDS011;76193;51.076;-1.794;2024-03-02T13:14:12;2.75;;;2.05;;
85753;SDS011;76193;51.076;-1.794;2024-03-02T13:16:41;2.85;;;1.70;;
85753;SDS011;76193;51.076;-1.794;2024-03-02T13:19:13;2.28;;;1.80;;
85753;SDS011;76193;51.076;-1.794;2024-03-02T13:21:38;4.32;;;1.42;;
85753;SDS011;76193;51.076;-1.794;2024-03-02T13:24:04;4.03;;;1.90;;
85753;SDS011;76193;51.076;-1.794;2024-03-02T13:26:30;4.05;;;1.95;;
85753;SDS011;76193;51.076;-1.794;2024-03-02T13:28:55;2.60;;;1.80;;
85753;SDS011;76193;51.076;-1.794;2024-03-02T13:31:21;3.05;;;1.83;;
85753;SDS011;76193;51.076;-1.794;2024-03-02T13:33:47;3.85;;;1.75;;
85753;SDS011;76193;51.076;-1.794;2024-03-02T13:36:12;1.70;;;1.50;;
85753;SDS011;76193;51.076;-1.794;2024-03-02T13:38:38;2.38;;;1.60;;
85753;SDS011;76193;51.076;-1.794;2024-03-02T13:41:03;2.40;;;2.00;;
85753;SDS011;76193;51.076;-1.794;2024-03-02T13:43:28;3.03;;;2.72;;
85753;SDS011;76193;51.076;-1.794;2024-03-02T13:45:57;4.70;;;3.03;;
85753;SDS011;76193;51.076;-1.794;2024-03-02T13:48:25;5.38;;;2.38;;
85753;SDS011;76193;51.076;-1.794;2024-03-02T13:50:51;3.13;;;2.25;;
85753;SDS011;76193;51.076;-1.794;2024-03-02T13:53:17;4.57;;;1.90;;
85753;SDS011;76193;51.076;-1.794;2024-03-02T13:55:43;1.85;;;1.60;;
85753;SDS011;76193;51.076;-1.794;2024-03-02T13:58:09;2.30;;;1.88;;
85753;SDS011;76193;51.076;-1.794;2024-03-02T14:00:35;2.30;;;1.80;;
85753;SDS011;76193;51.076;-1.794;2024-03-02T14:03:00;2.00;;;1.40;;
85753;SDS011;76193;51.076;-1.794;2024-03-02T14:05:26;2.40;;;1.27;;
85753;SDS011;76193;51.076;-1.794;2024-03-02T14:07:51;3.90;;;1.17;;
85753;SDS011;76193;51.076;-1.794;2024-03-02T14:10:17;2.10;;;0.95;;
85753;SDS011;76193;51.076;-1.794;2024-03-02T14:12:47;1.70;;;1.02;;
85753;SDS011;76193;51.076;-1.794;2024-03-02T14:15:12;0.93;;;0.77;;
85753;SDS011;76193;51.076;-1.794;2024-03-02T14:17:37;1.77;;;1.17;;
85753;SDS011;76193;51.076;-1.794;2024-03-02T14:20:03;1.70;;;1.40;;
85753;SDS011;76193;51.076;-1.794;2024-03-02T14:22:29;1.23;;;1.08;;
85753;SDS011;76193;51.076;-1.794;2024-03-02T14:24:55;1.42;;;0.88;;
85753;SDS011;76193;51.076;-1.794;2024-03-02T14:27:21;1.92;;;1.27;;
85753;SDS011;76193;51.076;-1.794;2024-03-02T14:29:46;7.18;;;4.07;;
85753;SDS011;76193;51.076;-1.794;2024-03-02T14:32:11;6.07;;;3.75;;
85753;SDS011;76193;51.076;-1.794;2024-03-02T14:34:37;3.78;;;2.28;;
85753;SDS011;76193;51.076;-1.794;2024-03-02T14:37:03;5.25;;;3.38;;